sensor_id;sensor_type;location;lat;lon;timestamp;P1;durP1;ratioP1;P2;durP2;ratioP2
58918;SDS011;44704;50.122;19.932;2022-09-09T00:00:46;11.00;;;9.60;;
58918;SDS011;44704;50.122;19.932;2022-09-09T00:03:32;10.40;;;9.30;;
58918;SDS011;44704;50.122;19.932;2022-09-09T00:06:17;10.50;;;9.30;;
58918;SDS011;44704;50.122;19.932;2022-09-09T00:11:47;13.20;;;10.20;;
58918;SDS011;44704;50.122;19.932;2022-09-09T00:14:23;13.00;;;9.70;;
58918;SDS011;44704;50.122;19.932;2022-09-09T00:17:02;11.90;;;9.10;;
58918;SDS011;44704;50.122;19.932;2022-09-09T00:24:43;11.40;;;9.90;;
58918;SDS011;44704;50.122;19.932;2022-09-09T00:29:47;10.00;;;8.90;;
58918;SDS011;44704;50.122;19.932;2022-09-09T00:32:21;10.00;;;9.00;;
58918;SDS011;44704;50.122;19.932;2022-09-09T00:34:49;12.00;;;9.50;;
58918;SDS011;44704;50.122;19.932;2022-09-09T00:37:20;9.80;;;8.80;;
58918;SDS011;44704;50.122;19.932;2022-09-09T00:39:52;9.90;;;8.90;;
58918;SDS011;44704;50.122;19.932;2022-09-09T00:42:25;10.90;;;8.60;;
58918;SDS011;44704;50.122;19.932;2022-09-09T00:45:10;12.30;;;9.30;;
58918;SDS011;44704;50.122;19.932;2022-09-09T00:47:51;9.70;;;8.60;;
58918;SDS011;44704;50.122;19.932;2022-09-09T00:53:24;11.20;;;9.60;;
58918;SDS011;44704;50.122;19.932;2022-09-09T00:56:09;10.90;;;9.70;;
58918;SDS011;44704;50.122;19.932;2022-09-09T00:58:48;11.60;;;9.50;;
58918;SDS011;44704;50.122;19.932;2022-09-09T01:01:33;10.40;;;8.60;;
58918;SDS011;44704;50.122;19.932;2022-09-09T01:04:01;13.20;;;10.60;;
58918;SDS011;44704;50.122;19.932;2022-09-09T01:06:38;10.40;;;9.30;;
58918;SDS011;44704;50.122;19.932;2022-09-09T01:14:51;12.20;;;10.80;;
58918;SDS011;44704;50.122;19.932;2022-09-09T01:17:24;14.70;;;10.10;;
58918;SDS011;44704;50.122;19.932;2022-09-09T01:28:40;13.40;;;12.00;;
58918;SDS011;44704;50.122;19.932;2022-09-09T01:31:15;15.30;;;12.30;;
58918;SDS011;44704;50.122;19.932;2022-09-09T01:33:47;14.70;;;12.00;;
58918;SDS011;44704;50.122;19.932;2022-09-09T01:36:37;14.80;;;13.30;;
58918;SDS011;44704;50.122;19.932;2022-09-09T01:39:12;13.40;;;12.10;;
58918;SDS011;44704;50.122;19.932;2022-09-09T01:41:40;14.10;;;12.40;;
58918;SDS011;44704;50.122;19.932;2022-09-09T01:44:11;14.50;;;13.00;;
58918;SDS011;44704;50.122;19.932;2022-09-09T01:46:40;14.50;;;12.20;;
58918;SDS011;44704;50.122;19.932;2022-09-09T01:49:13;17.00;;;12.80;;
58918;SDS011;44704;50.122;19.932;2022-09-09T01:51:40;16.30;;;13.80;;
58918;SDS011;44704;50.122;19.932;2022-09-09T01:54:12;15.10;;;12.50;;
58918;SDS011;44704;50.122;19.932;2022-09-09T01:59:28;16.20;;;12.80;;
58918;SDS011;44704;50.122;19.932;2022-09-09T02:04:52;14.30;;;12.80;;
58918;SDS011;44704;50.122;19.932;2022-09-09T02:07:33;16.20;;;13.70;;
58918;SDS011;44704;50.122;19.932;2022-09-09T02:13:13;14.40;;;12.50;;
58918;SDS011;44704;50.122;19.932;2022-09-09T02:20:54;17.50;;;14.00;;
58918;SDS011;44704;50.122;19.932;2022-09-09T02:23:25;15.90;;;12.80;;
58918;SDS011;44704;50.122;19.932;2022-09-09T02:25:55;14.60;;;12.90;;
58918;SDS011;44704;50.122;19.932;2022-09-09T02:28:26;15.60;;;14.00;;
58918;SDS011;44704;50.122;19.932;2022-09-09T02:30:58;14.40;;;12.90;;
58918;SDS011;44704;50.122;19.932;2022-09-09T02:33:35;15.80;;;13.30;;
58918;SDS011;44704;50.122;19.932;2022-09-09T02:36:07;15.40;;;13.30;;
58918;SDS011;44704;50.122;19.932;2022-09-09T02:38:37;15.50;;;13.50;;
58918;SDS011;44704;50.122;19.932;2022-09-09T02:41:12;14.50;;;12.70;;
58918;SDS011;44704;50.122;19.932;2022-09-09T02:43:39;14.90;;;12.90;;
58918;SDS011;44704;50.122;19.932;2022-09-09T02:48:52;14.40;;;12.40;;
58918;SDS011;44704;50.122;19.932;2022-09-09T02:52:12;16.00;;;13.40;;
58918;SDS011;44704;50.122;19.932;2022-09-09T02:57:06;14.60;;;13.20;;
58918;SDS011;44704;50.122;19.932;2022-09-09T02:59:38;16.70;;;13.00;;
58918;SDS011;44704;50.122;19.932;2022-09-09T03:02:06;14.70;;;12.70;;
58918;SDS011;44704;50.122;19.932;2022-09-09T03:04:34;17.40;;;13.70;;
58918;SDS011;44704;50.122;19.932;2022-09-09T03:07:00;16.50;;;14.70;;
58918;SDS011;44704;50.122;19.932;2022-09-09T03:09:30;18.70;;;14.60;;
58918;SDS011;44704;50.122;19.932;2022-09-09T03:11:57;18.10;;;15.50;;
58918;SDS011;44704;50.122;19.932;2022-09-09T03:14:24;17.20;;;15.00;;
58918;SDS011;44704;50.122;19.932;2022-09-09T03:16:53;17.60;;;15.80;;
58918;SDS011;44704;50.122;19.932;2022-09-09T03:19:21;20.10;;;15.80;;
58918;SDS011;44704;50.122;19.932;2022-09-09T03:21:49;19.40;;;16.00;;
58918;SDS011;44704;50.122;19.932;2022-09-09T03:24:16;19.90;;;17.50;;
58918;SDS011;44704;50.122;19.932;2022-09-09T03:26:43;19.70;;;16.60;;
58918;SDS011;44704;50.122;19.932;2022-09-09T03:29:15;19.00;;;16.40;;
58918;SDS011;44704;50.122;19.932;2022-09-09T03:31:44;21.90;;;16.20;;
58918;SDS011;44704;50.122;19.932;2022-09-09T03:34:12;21.20;;;17.60;;
58918;SDS011;44704;50.122;19.932;2022-09-09T03:36:40;20.20;;;16.80;;
58918;SDS011;44704;50.122;19.932;2022-09-09T03:39:08;20.10;;;16.50;;
58918;SDS011;44704;50.122;19.932;2022-09-09T03:41:35;19.20;;;16.50;;
58918;SDS011;44704;50.122;19.932;2022-09-09T03:46:35;22.30;;;16.00;;
58918;SDS011;44704;50.122;19.932;2022-09-09T03:49:02;21.20;;;17.30;;
58918;SDS011;44704;50.122;19.932;2022-09-09T03:51:30;19.40;;;16.40;;
58918;SDS011;44704;50.122;19.932;2022-09-09T03:53:58;18.30;;;16.00;;
58918;SDS011;44704;50.122;19.932;2022-09-09T03:56:27;18.20;;;16.10;;
58918;SDS011;44704;50.122;19.932;2022-09-09T03:58:55;20.30;;;16.20;;
58918;SDS011;44704;50.122;19.932;2022-09-09T04:01:22;18.40;;;16.10;;
58918;SDS011;44704;50.122;19.932;2022-09-09T04:03:49;18.40;;;16.20;;
58918;SDS011;44704;50.122;19.932;2022-09-09T04:06:17;17.50;;;15.70;;
58918;SDS011;44704;50.122;19.932;2022-09-09T04:08:46;18.90;;;15.90;;
58918;SDS011;44704;50.122;19.932;2022-09-09T04:11:15;20.40;;;16.30;;
58918;SDS011;44704;50.122;19.932;2022-09-09T04:13:44;22.30;;;15.60;;
58918;SDS011;44704;50.122;19.932;2022-09-09T04:16:12;16.10;;;14.40;;
58918;SDS011;44704;50.122;19.932;2022-09-09T04:18:41;21.80;;;16.60;;
58918;SDS011;44704;50.122;19.932;2022-09-09T04:21:09;18.80;;;15.90;;
58918;SDS011;44704;50.122;19.932;2022-09-09T04:23:37;19.70;;;15.40;;
58918;SDS011;44704;50.122;19.932;2022-09-09T04:26:05;18.10;;;16.00;;
58918;SDS011;44704;50.122;19.932;2022-09-09T04:28:33;21.10;;;16.70;;
58918;SDS011;44704;50.122;19.932;2022-09-09T04:31:06;19.00;;;16.30;;
58918;SDS011;44704;50.122;19.932;2022-09-09T04:33:35;19.50;;;16.60;;
58918;SDS011;44704;50.122;19.932;2022-09-09T04:36:02;18.70;;;16.40;;
58918;SDS011;44704;50.122;19.932;2022-09-09T04:38:30;22.60;;;17.20;;
58918;SDS011;44704;50.122;19.932;2022-09-09T04:40:56;19.90;;;17.60;;
58918;SDS011;44704;50.122;19.932;2022-09-09T04:43:23;21.70;;;17.20;;
58918;SDS011;44704;50.122;19.932;2022-09-09T04:45:52;25.80;;;18.50;;
58918;SDS011;44704;50.122;19.932;2022-09-09T04:48:21;21.40;;;18.30;;
58918;SDS011;44704;50.122;19.932;2022-09-09T04:53:23;23.00;;;16.80;;
58918;SDS011;44704;50.122;19.932;2022-09-09T04:56:00;24.40;;;17.80;;
58918;SDS011;44704;50.122;19.932;2022-09-09T04:58:42;24.50;;;18.90;;
58918;SDS011;44704;50.122;19.932;2022-09-09T05:01:11;23.40;;;17.10;;
58918;SDS011;44704;50.122;19.932;2022-09-09T05:03:40;23.20;;;18.50;;
58918;SDS011;44704;50.122;19.932;2022-09-09T05:06:13;27.50;;;18.90;;
58918;SDS011;44704;50.122;19.932;2022-09-09T05:08:44;26.00;;;19.30;;
58918;SDS011;44704;50.122;19.932;2022-09-09T05:11:24;26.20;;;18.40;;
58918;SDS011;44704;50.122;19.932;2022-09-09T05:13:55;27.20;;;18.00;;
58918;SDS011;44704;50.122;19.932;2022-09-09T05:16:29;24.80;;;18.60;;
58918;SDS011;44704;50.122;19.932;2022-09-09T05:18:57;26.70;;;17.50;;
58918;SDS011;44704;50.122;19.932;2022-09-09T05:21:27;28.20;;;17.90;;
58918;SDS011;44704;50.122;19.932;2022-09-09T05:23:55;24.10;;;17.10;;
58918;SDS011;44704;50.122;19.932;2022-09-09T05:26:22;24.90;;;17.90;;
58918;SDS011;44704;50.122;19.932;2022-09-09T05:28:51;24.00;;;17.50;;
58918;SDS011;44704;50.122;19.932;2022-09-09T05:31:19;25.20;;;17.30;;
58918;SDS011;44704;50.122;19.932;2022-09-09T05:33:50;25.10;;;17.50;;
58918;SDS011;44704;50.122;19.932;2022-09-09T05:36:18;21.20;;;17.00;;
58918;SDS011;44704;50.122;19.932;2022-09-09T05:38:50;27.10;;;18.40;;
58918;SDS011;44704;50.122;19.932;2022-09-09T05:41:17;20.40;;;16.80;;
58918;SDS011;44704;50.122;19.932;2022-09-09T05:43:46;17.80;;;15.70;;
58918;SDS011;44704;50.122;19.932;2022-09-09T05:46:17;20.30;;;16.40;;
58918;SDS011;44704;50.122;19.932;2022-09-09T05:48:46;22.10;;;16.90;;
58918;SDS011;44704;50.122;19.932;2022-09-09T05:51:16;21.10;;;16.60;;
58918;SDS011;44704;50.122;19.932;2022-09-09T05:53:45;21.90;;;17.70;;
58918;SDS011;44704;50.122;19.932;2022-09-09T05:56:14;23.60;;;17.50;;
58918;SDS011;44704;50.122;19.932;2022-09-09T05:58:45;21.60;;;17.10;;
58918;SDS011;44704;50.122;19.932;2022-09-09T06:01:14;26.20;;;19.50;;
58918;SDS011;44704;50.122;19.932;2022-09-09T06:03:42;23.30;;;18.80;;
58918;SDS011;44704;50.122;19.932;2022-09-09T06:06:12;25.90;;;19.00;;
58918;SDS011;44704;50.122;19.932;2022-09-09T06:08:44;26.40;;;21.30;;
58918;SDS011;44704;50.122;19.932;2022-09-09T06:11:22;26.10;;;21.40;;
58918;SDS011;44704;50.122;19.932;2022-09-09T06:13:51;30.70;;;20.10;;
58918;SDS011;44704;50.122;19.932;2022-09-09T06:16:21;29.50;;;20.30;;
58918;SDS011;44704;50.122;19.932;2022-09-09T06:18:51;27.20;;;21.10;;
58918;SDS011;44704;50.122;19.932;2022-09-09T06:21:20;30.30;;;21.50;;
58918;SDS011;44704;50.122;19.932;2022-09-09T06:23:49;28.90;;;22.00;;
58918;SDS011;44704;50.122;19.932;2022-09-09T06:26:21;31.20;;;22.80;;
58918;SDS011;44704;50.122;19.932;2022-09-09T06:28:53;36.40;;;23.70;;
58918;SDS011;44704;50.122;19.932;2022-09-09T06:31:22;30.30;;;23.40;;
58918;SDS011;44704;50.122;19.932;2022-09-09T06:33:52;35.40;;;23.50;;
58918;SDS011;44704;50.122;19.932;2022-09-09T06:36:21;37.60;;;24.10;;
58918;SDS011;44704;50.122;19.932;2022-09-09T06:38:50;33.40;;;21.60;;
58918;SDS011;44704;50.122;19.932;2022-09-09T06:41:19;32.20;;;23.30;;
58918;SDS011;44704;50.122;19.932;2022-09-09T06:43:47;28.30;;;21.10;;
58918;SDS011;44704;50.122;19.932;2022-09-09T06:46:16;26.50;;;19.60;;
58918;SDS011;44704;50.122;19.932;2022-09-09T06:48:54;25.60;;;18.30;;
58918;SDS011;44704;50.122;19.932;2022-09-09T06:51:24;23.30;;;19.40;;
58918;SDS011;44704;50.122;19.932;2022-09-09T06:53:56;24.00;;;19.30;;
58918;SDS011;44704;50.122;19.932;2022-09-09T06:56:26;28.40;;;19.60;;
58918;SDS011;44704;50.122;19.932;2022-09-09T06:58:58;24.00;;;18.50;;
58918;SDS011;44704;50.122;19.932;2022-09-09T07:01:31;20.70;;;16.90;;
58918;SDS011;44704;50.122;19.932;2022-09-09T07:04:01;24.30;;;17.70;;
58918;SDS011;44704;50.122;19.932;2022-09-09T07:06:33;22.20;;;16.90;;
58918;SDS011;44704;50.122;19.932;2022-09-09T07:09:03;25.00;;;17.10;;
58918;SDS011;44704;50.122;19.932;2022-09-09T07:11:34;24.10;;;18.90;;
58918;SDS011;44704;50.122;19.932;2022-09-09T07:14:05;23.60;;;18.20;;
58918;SDS011;44704;50.122;19.932;2022-09-09T07:16:32;24.20;;;18.80;;
58918;SDS011;44704;50.122;19.932;2022-09-09T07:19:00;24.50;;;18.20;;
58918;SDS011;44704;50.122;19.932;2022-09-09T07:21:30;24.50;;;18.10;;
58918;SDS011;44704;50.122;19.932;2022-09-09T07:23:58;24.30;;;17.50;;
58918;SDS011;44704;50.122;19.932;2022-09-09T07:26:27;20.60;;;16.20;;
58918;SDS011;44704;50.122;19.932;2022-09-09T07:28:57;19.80;;;16.30;;
58918;SDS011;44704;50.122;19.932;2022-09-09T07:31:26;23.50;;;16.90;;
58918;SDS011;44704;50.122;19.932;2022-09-09T07:33:54;25.10;;;17.80;;
58918;SDS011;44704;50.122;19.932;2022-09-09T07:36:22;23.60;;;17.40;;
58918;SDS011;44704;50.122;19.932;2022-09-09T07:38:56;18.60;;;15.40;;
58918;SDS011;44704;50.122;19.932;2022-09-09T07:41:31;18.70;;;14.50;;
58918;SDS011;44704;50.122;19.932;2022-09-09T07:44:07;19.50;;;14.20;;
58918;SDS011;44704;50.122;19.932;2022-09-09T07:47:05;18.00;;;14.50;;
58918;SDS011;44704;50.122;19.932;2022-09-09T07:49:36;16.20;;;12.50;;
58918;SDS011;44704;50.122;19.932;2022-09-09T07:52:04;19.70;;;13.70;;
58918;SDS011;44704;50.122;19.932;2022-09-09T07:54:32;14.60;;;11.50;;
58918;SDS011;44704;50.122;19.932;2022-09-09T07:57:00;12.80;;;10.60;;
58918;SDS011;44704;50.122;19.932;2022-09-09T07:59:28;15.80;;;10.90;;
58918;SDS011;44704;50.122;19.932;2022-09-09T08:01:56;12.50;;;11.20;;
58918;SDS011;44704;50.122;19.932;2022-09-09T08:04:26;14.10;;;10.70;;
58918;SDS011;44704;50.122;19.932;2022-09-09T08:09:24;11.90;;;10.20;;
58918;SDS011;44704;50.122;19.932;2022-09-09T08:11:58;11.10;;;8.90;;
58918;SDS011;44704;50.122;19.932;2022-09-09T08:14:25;9.00;;;8.10;;
58918;SDS011;44704;50.122;19.932;2022-09-09T08:16:53;7.50;;;6.80;;
58918;SDS011;44704;50.122;19.932;2022-09-09T08:19:22;10.10;;;6.20;;
58918;SDS011;44704;50.122;19.932;2022-09-09T08:21:50;6.80;;;6.10;;
58918;SDS011;44704;50.122;19.932;2022-09-09T08:24:17;7.80;;;6.90;;
58918;SDS011;44704;50.122;19.932;2022-09-09T08:26:47;8.60;;;6.80;;
58918;SDS011;44704;50.122;19.932;2022-09-09T08:29:16;8.80;;;6.80;;
58918;SDS011;44704;50.122;19.932;2022-09-09T08:31:47;6.60;;;5.90;;
58918;SDS011;44704;50.122;19.932;2022-09-09T08:34:21;6.10;;;5.40;;
58918;SDS011;44704;50.122;19.932;2022-09-09T08:36:50;7.70;;;5.60;;
58918;SDS011;44704;50.122;19.932;2022-09-09T08:39:20;7.60;;;5.70;;
58918;SDS011;44704;50.122;19.932;2022-09-09T08:52:29;4.80;;;4.20;;
58918;SDS011;44704;50.122;19.932;2022-09-09T08:58:02;4.80;;;3.60;;
58918;SDS011;44704;50.122;19.932;2022-09-09T09:04:11;4.60;;;4.00;;
58918;SDS011;44704;50.122;19.932;2022-09-09T09:09:07;4.30;;;3.20;;
58918;SDS011;44704;50.122;19.932;2022-09-09T09:11:50;5.00;;;3.00;;
58918;SDS011;44704;50.122;19.932;2022-09-09T09:14:24;5.00;;;3.10;;
58918;SDS011;44704;50.122;19.932;2022-09-09T09:16:56;3.00;;;2.80;;
58918;SDS011;44704;50.122;19.932;2022-09-09T09:19:28;3.30;;;2.70;;
58918;SDS011;44704;50.122;19.932;2022-09-09T09:22:02;4.50;;;2.90;;
58918;SDS011;44704;50.122;19.932;2022-09-09T09:24:55;3.30;;;2.70;;
58918;SDS011;44704;50.122;19.932;2022-09-09T09:32:54;4.00;;;2.10;;
58918;SDS011;44704;50.122;19.932;2022-09-09T09:35:25;2.40;;;2.10;;
58918;SDS011;44704;50.122;19.932;2022-09-09T09:37:52;2.50;;;2.10;;
58918;SDS011;44704;50.122;19.932;2022-09-09T09:40:20;3.90;;;2.20;;
58918;SDS011;44704;50.122;19.932;2022-09-09T09:42:52;3.80;;;2.20;;
58918;SDS011;44704;50.122;19.932;2022-09-09T09:45:29;2.50;;;2.30;;
58918;SDS011;44704;50.122;19.932;2022-09-09T09:48:02;7.40;;;3.00;;
58918;SDS011;44704;50.122;19.932;2022-09-09T09:50:32;4.30;;;2.10;;
58918;SDS011;44704;50.122;19.932;2022-09-09T09:53:01;3.50;;;2.20;;
58918;SDS011;44704;50.122;19.932;2022-09-09T09:55:32;2.80;;;1.90;;
58918;SDS011;44704;50.122;19.932;2022-09-09T09:58:06;7.10;;;2.30;;
58918;SDS011;44704;50.122;19.932;2022-09-09T10:00:47;3.00;;;2.20;;
58918;SDS011;44704;50.122;19.932;2022-09-09T10:03:24;3.80;;;1.90;;
58918;SDS011;44704;50.122;19.932;2022-09-09T10:05:53;2.60;;;1.80;;
58918;SDS011;44704;50.122;19.932;2022-09-09T10:08:23;2.30;;;1.90;;
58918;SDS011;44704;50.122;19.932;2022-09-09T10:10:59;2.10;;;1.60;;
58918;SDS011;44704;50.122;19.932;2022-09-09T10:16:30;3.30;;;1.80;;
58918;SDS011;44704;50.122;19.932;2022-09-09T10:19:05;5.90;;;1.70;;
58918;SDS011;44704;50.122;19.932;2022-09-09T10:21:52;1.50;;;1.40;;
58918;SDS011;44704;50.122;19.932;2022-09-09T10:38:17;1.40;;;1.30;;
58918;SDS011;44704;50.122;19.932;2022-09-09T10:41:00;3.20;;;1.30;;
58918;SDS011;44704;50.122;19.932;2022-09-09T10:43:43;1.60;;;1.20;;
58918;SDS011;44704;50.122;19.932;2022-09-09T10:55:12;1.40;;;1.10;;
58918;SDS011;44704;50.122;19.932;2022-09-09T10:57:45;2.80;;;1.40;;
58918;SDS011;44704;50.122;19.932;2022-09-09T11:00:19;1.80;;;1.00;;
58918;SDS011;44704;50.122;19.932;2022-09-09T11:02:50;1.40;;;1.30;;
58918;SDS011;44704;50.122;19.932;2022-09-09T11:05:36;1.10;;;1.00;;
58918;SDS011;44704;50.122;19.932;2022-09-09T11:10:48;2.20;;;1.20;;
58918;SDS011;44704;50.122;19.932;2022-09-09T11:13:34;1.60;;;1.10;;
58918;SDS011;44704;50.122;19.932;2022-09-09T11:16:12;1.10;;;1.00;;
58918;SDS011;44704;50.122;19.932;2022-09-09T11:18:55;1.20;;;1.10;;
58918;SDS011;44704;50.122;19.932;2022-09-09T11:21:30;1.60;;;1.10;;
58918;SDS011;44704;50.122;19.932;2022-09-09T11:24:04;2.60;;;1.40;;
58918;SDS011;44704;50.122;19.932;2022-09-09T11:26:42;1.10;;;1.00;;
58918;SDS011;44704;50.122;19.932;2022-09-09T11:32:34;2.40;;;1.50;;
58918;SDS011;44704;50.122;19.932;2022-09-09T11:38:11;1.90;;;1.50;;
58918;SDS011;44704;50.122;19.932;2022-09-09T11:40:53;1.50;;;1.10;;
58918;SDS011;44704;50.122;19.932;2022-09-09T11:46:19;2.80;;;0.80;;
58918;SDS011;44704;50.122;19.932;2022-09-09T11:49:03;2.10;;;1.10;;
58918;SDS011;44704;50.122;19.932;2022-09-09T11:51:32;1.70;;;0.90;;
58918;SDS011;44704;50.122;19.932;2022-09-09T11:56:29;1.60;;;1.10;;
58918;SDS011;44704;50.122;19.932;2022-09-09T11:59:16;1.70;;;1.20;;
58918;SDS011;44704;50.122;19.932;2022-09-09T12:01:50;1.20;;;0.80;;
58918;SDS011;44704;50.122;19.932;2022-09-09T12:14:43;1.10;;;0.80;;
58918;SDS011;44704;50.122;19.932;2022-09-09T12:17:22;1.10;;;1.00;;
58918;SDS011;44704;50.122;19.932;2022-09-09T12:20:01;1.40;;;0.80;;
58918;SDS011;44704;50.122;19.932;2022-09-09T12:22:41;1.20;;;0.90;;
58918;SDS011;44704;50.122;19.932;2022-09-09T12:28:37;2.90;;;1.00;;
58918;SDS011;44704;50.122;19.932;2022-09-09T12:34:14;1.30;;;0.90;;
58918;SDS011;44704;50.122;19.932;2022-09-09T12:37:08;0.90;;;0.70;;
58918;SDS011;44704;50.122;19.932;2022-09-09T12:39:45;1.80;;;0.80;;
58918;SDS011;44704;50.122;19.932;2022-09-09T12:42:23;2.70;;;0.90;;
58918;SDS011;44704;50.122;19.932;2022-09-09T12:44:51;1.20;;;1.10;;
58918;SDS011;44704;50.122;19.932;2022-09-09T12:50:31;2.40;;;0.90;;
58918;SDS011;44704;50.122;19.932;2022-09-09T12:53:03;1.70;;;1.00;;
58918;SDS011;44704;50.122;19.932;2022-09-09T12:55:37;1.10;;;0.70;;
58918;SDS011;44704;50.122;19.932;2022-09-09T12:58:06;2.10;;;0.80;;
58918;SDS011;44704;50.122;19.932;2022-09-09T13:00:33;2.10;;;0.70;;
58918;SDS011;44704;50.122;19.932;2022-09-09T13:03:15;1.50;;;0.80;;
58918;SDS011;44704;50.122;19.932;2022-09-09T13:05:44;1.20;;;0.80;;
58918;SDS011;44704;50.122;19.932;2022-09-09T13:08:13;1.60;;;0.80;;
58918;SDS011;44704;50.122;19.932;2022-09-09T13:10:46;2.40;;;0.80;;
58918;SDS011;44704;50.122;19.932;2022-09-09T13:13:16;1.50;;;0.90;;
58918;SDS011;44704;50.122;19.932;2022-09-09T13:15:54;2.60;;;0.90;;
58918;SDS011;44704;50.122;19.932;2022-09-09T13:18:34;0.90;;;0.80;;
58918;SDS011;44704;50.122;19.932;2022-09-09T13:21:03;1.00;;;0.80;;
58918;SDS011;44704;50.122;19.932;2022-09-09T13:23:31;1.10;;;1.00;;
58918;SDS011;44704;50.122;19.932;2022-09-09T13:26:06;1.80;;;1.10;;
58918;SDS011;44704;50.122;19.932;2022-09-09T13:28:50;1.60;;;0.90;;
58918;SDS011;44704;50.122;19.932;2022-09-09T13:31:23;2.50;;;1.00;;
58918;SDS011;44704;50.122;19.932;2022-09-09T13:33:55;2.00;;;1.10;;
58918;SDS011;44704;50.122;19.932;2022-09-09T13:36:33;2.20;;;1.00;;
58918;SDS011;44704;50.122;19.932;2022-09-09T13:39:02;2.40;;;1.00;;
58918;SDS011;44704;50.122;19.932;2022-09-09T13:44:02;2.20;;;0.80;;
58918;SDS011;44704;50.122;19.932;2022-09-09T13:46:36;0.70;;;0.70;;
58918;SDS011;44704;50.122;19.932;2022-09-09T13:54:06;1.10;;;0.80;;
58918;SDS011;44704;50.122;19.932;2022-09-09T13:56:37;1.80;;;0.90;;
58918;SDS011;44704;50.122;19.932;2022-09-09T13:59:06;3.60;;;1.10;;
58918;SDS011;44704;50.122;19.932;2022-09-09T14:01:38;2.20;;;1.00;;
58918;SDS011;44704;50.122;19.932;2022-09-09T14:04:05;0.90;;;0.90;;
58918;SDS011;44704;50.122;19.932;2022-09-09T14:06:33;1.30;;;0.80;;
58918;SDS011;44704;50.122;19.932;2022-09-09T14:09:05;2.20;;;0.90;;
58918;SDS011;44704;50.122;19.932;2022-09-09T14:11:33;1.40;;;1.10;;
58918;SDS011;44704;50.122;19.932;2022-09-09T14:14:00;1.50;;;1.00;;
58918;SDS011;44704;50.122;19.932;2022-09-09T14:16:27;2.70;;;0.90;;
58918;SDS011;44704;50.122;19.932;2022-09-09T14:18:54;1.90;;;1.10;;
58918;SDS011;44704;50.122;19.932;2022-09-09T14:21:23;1.40;;;0.90;;
58918;SDS011;44704;50.122;19.932;2022-09-09T14:23:51;3.80;;;1.00;;
58918;SDS011;44704;50.122;19.932;2022-09-09T14:26:21;2.20;;;1.20;;
58918;SDS011;44704;50.122;19.932;2022-09-09T14:28:49;3.40;;;2.40;;
58918;SDS011;44704;50.122;19.932;2022-09-09T14:31:18;1.30;;;1.20;;
58918;SDS011;44704;50.122;19.932;2022-09-09T14:33:45;1.20;;;1.10;;
58918;SDS011;44704;50.122;19.932;2022-09-09T14:36:12;1.60;;;1.00;;
58918;SDS011;44704;50.122;19.932;2022-09-09T14:38:39;1.80;;;1.50;;
58918;SDS011;44704;50.122;19.932;2022-09-09T14:41:06;1.90;;;1.20;;
58918;SDS011;44704;50.122;19.932;2022-09-09T14:43:37;1.90;;;0.90;;
58918;SDS011;44704;50.122;19.932;2022-09-09T14:46:07;1.40;;;1.10;;
58918;SDS011;44704;50.122;19.932;2022-09-09T14:48:36;1.50;;;1.00;;
58918;SDS011;44704;50.122;19.932;2022-09-09T14:51:13;3.10;;;1.10;;
58918;SDS011;44704;50.122;19.932;2022-09-09T14:53:43;1.90;;;1.20;;
58918;SDS011;44704;50.122;19.932;2022-09-09T14:56:11;1.70;;;1.20;;
58918;SDS011;44704;50.122;19.932;2022-09-09T14:58:41;1.70;;;1.10;;
58918;SDS011;44704;50.122;19.932;2022-09-09T15:01:09;2.90;;;1.20;;
58918;SDS011;44704;50.122;19.932;2022-09-09T15:03:37;1.70;;;1.10;;
58918;SDS011;44704;50.122;19.932;2022-09-09T15:08:38;4.10;;;1.40;;
58918;SDS011;44704;50.122;19.932;2022-09-09T15:11:11;2.30;;;1.30;;
58918;SDS011;44704;50.122;19.932;2022-09-09T15:13:39;1.60;;;1.00;;
58918;SDS011;44704;50.122;19.932;2022-09-09T15:16:10;2.00;;;1.10;;
58918;SDS011;44704;50.122;19.932;2022-09-09T15:18:43;1.50;;;1.00;;
58918;SDS011;44704;50.122;19.932;2022-09-09T15:21:15;2.10;;;1.20;;
58918;SDS011;44704;50.122;19.932;2022-09-09T15:23:45;2.70;;;1.20;;
58918;SDS011;44704;50.122;19.932;2022-09-09T15:26:14;3.00;;;1.60;;
58918;SDS011;44704;50.122;19.932;2022-09-09T15:28:43;0.90;;;0.90;;
58918;SDS011;44704;50.122;19.932;2022-09-09T15:31:16;1.10;;;1.00;;
58918;SDS011;44704;50.122;19.932;2022-09-09T15:33:51;2.00;;;1.20;;
58918;SDS011;44704;50.122;19.932;2022-09-09T15:36:21;3.80;;;1.50;;
58918;SDS011;44704;50.122;19.932;2022-09-09T15:38:50;1.80;;;1.00;;
58918;SDS011;44704;50.122;19.932;2022-09-09T15:41:19;3.60;;;1.00;;
58918;SDS011;44704;50.122;19.932;2022-09-09T15:43:49;1.60;;;1.00;;
58918;SDS011;44704;50.122;19.932;2022-09-09T15:46:30;1.40;;;1.30;;
58918;SDS011;44704;50.122;19.932;2022-09-09T15:49:07;2.60;;;1.30;;
58918;SDS011;44704;50.122;19.932;2022-09-09T15:51:36;3.10;;;1.30;;
58918;SDS011;44704;50.122;19.932;2022-09-09T15:54:05;1.80;;;1.60;;
58918;SDS011;44704;50.122;19.932;2022-09-09T15:56:32;1.40;;;1.30;;
58918;SDS011;44704;50.122;19.932;2022-09-09T15:58:59;2.50;;;1.50;;
58918;SDS011;44704;50.122;19.932;2022-09-09T16:01:29;2.90;;;1.20;;
58918;SDS011;44704;50.122;19.932;2022-09-09T16:03:58;1.40;;;1.30;;
58918;SDS011;44704;50.122;19.932;2022-09-09T16:06:27;1.60;;;1.10;;
58918;SDS011;44704;50.122;19.932;2022-09-09T16:08:56;1.40;;;0.90;;
58918;SDS011;44704;50.122;19.932;2022-09-09T16:13:53;2.50;;;1.30;;
58918;SDS011;44704;50.122;19.932;2022-09-09T16:16:23;1.20;;;1.10;;
58918;SDS011;44704;50.122;19.932;2022-09-09T16:18:52;3.90;;;1.20;;
58918;SDS011;44704;50.122;19.932;2022-09-09T16:21:22;1.60;;;1.30;;
58918;SDS011;44704;50.122;19.932;2022-09-09T16:23:51;5.10;;;1.30;;
58918;SDS011;44704;50.122;19.932;2022-09-09T16:26:22;1.40;;;1.00;;
58918;SDS011;44704;50.122;19.932;2022-09-09T16:28:50;1.50;;;1.40;;
58918;SDS011;44704;50.122;19.932;2022-09-09T16:31:18;3.00;;;2.00;;
58918;SDS011;44704;50.122;19.932;2022-09-09T16:33:46;3.20;;;1.50;;
58918;SDS011;44704;50.122;19.932;2022-09-09T16:36:15;2.20;;;1.40;;
58918;SDS011;44704;50.122;19.932;2022-09-09T16:38:47;1.90;;;1.30;;
58918;SDS011;44704;50.122;19.932;2022-09-09T16:41:14;2.20;;;1.60;;
58918;SDS011;44704;50.122;19.932;2022-09-09T16:43:42;3.00;;;1.70;;
58918;SDS011;44704;50.122;19.932;2022-09-09T16:46:12;3.10;;;1.70;;
58918;SDS011;44704;50.122;19.932;2022-09-09T16:48:42;2.90;;;1.70;;
58918;SDS011;44704;50.122;19.932;2022-09-09T16:53:42;3.20;;;1.90;;
58918;SDS011;44704;50.122;19.932;2022-09-09T16:56:13;2.50;;;2.10;;
58918;SDS011;44704;50.122;19.932;2022-09-09T16:58:43;5.70;;;2.80;;
58918;SDS011;44704;50.122;19.932;2022-09-09T17:01:11;4.60;;;2.80;;
58918;SDS011;44704;50.122;19.932;2022-09-09T17:03:40;11.30;;;3.30;;
58918;SDS011;44704;50.122;19.932;2022-09-09T17:06:08;5.10;;;3.50;;
58918;SDS011;44704;50.122;19.932;2022-09-09T17:08:38;6.00;;;3.60;;
58918;SDS011;44704;50.122;19.932;2022-09-09T17:11:13;7.50;;;3.40;;
58918;SDS011;44704;50.122;19.932;2022-09-09T17:13:42;4.40;;;3.20;;
58918;SDS011;44704;50.122;19.932;2022-09-09T17:16:10;4.90;;;3.10;;
58918;SDS011;44704;50.122;19.932;2022-09-09T17:18:39;6.60;;;3.10;;
58918;SDS011;44704;50.122;19.932;2022-09-09T17:21:08;6.70;;;2.50;;
58918;SDS011;44704;50.122;19.932;2022-09-09T17:23:39;5.40;;;3.00;;